Time;durP1;ratioP1;P1;durP2;ratioP2;P2;SDS_P1;SDS_P2;PMS_P1;PMS_P2;Temp;Humidity;BMP_temperature;BMP_pressure;BME280_temperature;BME280_humidity;BME280_pressure;Samples;Min_cycle;Max_cycle;Signal;HPM_P1;HPM_P2
2022/01/14 00:01:50;;;;;;;7.13;2.70;;;1.70;99.90;;;;;;5075140;28;20439;-69
2022/01/14 00:04:17;;;;;;;4.07;2.20;;;1.70;99.90;;;;;;5076256;28;20765;-68
2022/01/14 00:06:44;;;;;;;8.30;3.20;;;1.70;99.90;;;;;;5076004;28;20524;-68
2022/01/14 00:09:12;;;;;;;7.47;2.27;;;1.70;99.90;;;;;;5076257;28;20454;-68
2022/01/14 00:11:45;;;;;;;3.90;1.60;;;1.70;99.90;;;;;;5075519;28;20541;-68
2022/01/14 00:14:22;;;;;;;6.43;4.20;;;1.70;99.90;;;;;;5076048;28;20556;-68
2022/01/14 00:16:51;;;;;;;11.70;5.20;;;1.70;99.90;;;;;;5075641;28;20477;-68
2022/01/14 00:19:18;;;;;;;6.30;3.57;;;1.70;99.90;;;;;;5075043;28;20490;-68
2022/01/14 00:21:46;;;;;;;4.40;2.77;;;1.60;99.90;;;;;;5075855;28;20446;-68
2022/01/14 00:24:24;;;;;;;7.60;3.63;;;1.60;99.90;;;;;;5076494;28;20462;-67
2022/01/14 00:32:30;;;;;;;7.87;3.97;;;1.50;99.90;;;;;;5079621;28;20519;-68
2022/01/14 00:34:57;;;;;;;8.80;4.00;;;1.40;99.90;;;;;;5079909;28;20461;-68
2022/01/14 00:37:23;;;;;;;9.10;4.10;;;1.60;99.90;;;;;;5079810;28;20447;-69
2022/01/14 00:39:50;;;;;;;6.10;3.57;;;1.60;99.90;;;;;;5080037;28;20476;-69
2022/01/14 00:42:17;;;;;;;9.70;6.20;;;1.50;99.90;;;;;;5078981;28;20450;-68
2022/01/14 00:44:44;;;;;;;9.13;4.90;;;1.60;99.90;;;;;;5078972;28;20458;-68
2022/01/14 00:47:11;;;;;;;13.63;5.90;;;1.70;99.90;;;;;;5078889;28;20453;-67
2022/01/14 00:49:39;;;;;;;9.50;5.87;;;1.80;99.90;;;;;;5079379;28;20458;-68
2022/01/14 00:52:06;;;;;;;9.43;4.30;;;1.90;99.90;;;;;;5079202;28;20569;-67
2022/01/14 00:54:33;;;;;;;8.50;5.03;;;1.90;99.90;;;;;;5078903;28;20461;-68
2022/01/14 00:57:15;;;;;;;11.33;6.10;;;1.80;99.90;;;;;;5077770;28;20888;-68
2022/01/14 00:59:42;;;;;;;11.03;3.60;;;1.60;99.90;;;;;;5077862;28;20806;-67
2022/01/14 01:02:10;;;;;;;9.67;5.27;;;1.40;99.90;;;;;;5076430;28;20435;-68
2022/01/14 01:04:40;;;;;;;7.90;3.90;;;1.30;99.90;;;;;;5077739;28;20465;-67
2022/01/14 01:07:09;;;;;;;10.07;4.73;;;1.30;99.90;;;;;;5077723;28;20936;-68
2022/01/14 01:09:37;;;;;;;9.27;3.90;;;1.30;99.90;;;;;;5077449;28;20531;-67
2022/01/14 01:12:10;;;;;;;7.43;4.37;;;1.30;99.90;;;;;;5076865;28;20454;-68
2022/01/14 01:14:44;;;;;;;6.50;3.60;;;1.30;99.90;;;;;;5076460;28;20458;-68
2022/01/14 01:17:11;;;;;;;13.50;4.37;;;1.40;99.90;;;;;;5078724;28;20451;-68
2022/01/14 01:19:39;;;;;;;12.87;4.77;;;1.40;99.90;;;;;;5078717;28;20480;-67
2022/01/14 01:22:06;;;;;;;6.57;3.93;;;1.40;99.90;;;;;;5078790;28;20456;-68
2022/01/14 01:24:33;;;;;;;5.83;2.50;;;1.30;99.90;;;;;;5078992;28;20454;-68
2022/01/14 01:27:07;;;;;;;5.87;3.23;;;1.30;99.90;;;;;;5078926;28;20497;-68
2022/01/14 01:29:49;;;;;;;13.40;4.57;;;1.40;99.90;;;;;;5078753;28;20520;-68
2022/01/14 01:32:16;;;;;;;12.60;3.53;;;1.40;99.90;;;;;;5078824;28;20575;-68
2022/01/14 01:34:44;;;;;;;6.57;4.27;;;1.50;99.90;;;;;;5078673;28;20450;-69
2022/01/14 01:37:11;;;;;;;5.60;3.40;;;1.60;99.90;;;;;;5077874;28;20458;-68
2022/01/14 01:39:38;;;;;;;6.60;2.57;;;1.70;99.90;;;;;;5078969;28;20454;-68
2022/01/14 01:42:08;;;;;;;8.63;4.80;;;1.80;99.90;;;;;;5078796;28;20438;-68
2022/01/14 01:44:36;;;;;;;8.43;2.90;;;1.80;99.90;;;;;;5078464;28;20450;-68
2022/01/14 01:47:05;;;;;;;7.83;3.77;;;1.80;99.90;;;;;;5078396;28;20913;-68
2022/01/14 01:49:33;;;;;;;11.03;5.23;;;1.80;99.90;;;;;;5078382;28;20458;-68
2022/01/14 01:52:02;;;;;;;12.10;4.90;;;1.80;99.90;;;;;;5078480;28;20892;-67
2022/01/14 01:54:29;;;;;;;7.63;3.37;;;1.70;99.90;;;;;;5078173;28;20987;-68
2022/01/14 01:56:57;;;;;;;7.50;3.30;;;1.60;99.90;;;;;;5078158;28;20446;-68
2022/01/14 01:59:25;;;;;;;9.27;3.83;;;1.60;99.90;;;;;;5078006;28;20652;-68
2022/01/14 02:01:52;;;;;;;9.47;2.33;;;1.60;99.90;;;;;;5078348;28;20948;-68
2022/01/14 02:04:19;;;;;;;6.10;2.73;;;1.50;99.90;;;;;;5078321;28;20443;-68
2022/01/14 02:06:47;;;;;;;5.53;1.87;;;1.60;99.90;;;;;;5078144;28;20920;-68
2022/01/14 02:09:15;;;;;;;9.00;2.80;;;1.60;99.90;;;;;;5078307;28;20478;-68
2022/01/14 02:11:42;;;;;;;8.03;3.30;;;1.60;99.90;;;;;;5078396;28;20715;-68
2022/01/14 02:14:26;;;;;;;5.93;2.43;;;1.60;99.90;;;;;;5077799;28;21057;-68
2022/01/14 02:17:16;;;;;;;9.87;4.73;;;1.50;99.90;;;;;;5077897;28;20916;-68
2022/01/14 02:22:52;;;;;;;7.33;3.27;;;1.50;99.90;;;;;;5077392;28;20420;-67
2022/01/14 02:25:28;;;;;;;4.40;3.37;;;1.50;99.90;;;;;;5077529;28;20552;-68
2022/01/14 02:27:56;;;;;;;6.83;3.53;;;1.50;99.90;;;;;;5077417;28;20759;-67
2022/01/14 02:30:24;;;;;;;8.90;4.07;;;1.60;99.90;;;;;;5077900;28;20452;-68
2022/01/14 02:32:51;;;;;;;6.50;3.50;;;1.60;99.90;;;;;;5077384;28;20496;-67
2022/01/14 02:35:19;;;;;;;13.77;6.83;;;1.70;99.90;;;;;;5077813;28;20476;-68
2022/01/14 02:37:47;;;;;;;6.27;3.87;;;1.70;99.90;;;;;;5077505;28;20826;-67
2022/01/14 02:40:14;;;;;;;7.90;3.67;;;1.70;99.90;;;;;;5077199;28;20458;-67
2022/01/14 02:42:41;;;;;;;8.03;3.70;;;1.70;99.90;;;;;;5077680;28;20942;-67
2022/01/14 02:45:11;;;;;;;8.20;4.77;;;1.70;99.90;;;;;;5077536;28;20435;-67
2022/01/14 02:47:38;;;;;;;8.40;4.57;;;1.70;99.90;;;;;;5077092;28;20458;-67
2022/01/14 02:50:07;;;;;;;11.43;4.47;;;1.60;99.90;;;;;;5077251;28;20882;-67
2022/01/14 02:52:53;;;;;;;7.53;4.33;;;1.50;99.90;;;;;;5076878;28;20446;-67
2022/01/14 02:55:22;;;;;;;9.93;3.20;;;1.60;99.90;;;;;;5077055;28;20465;-67
2022/01/14 02:57:51;;;;;;;5.90;3.20;;;1.60;99.90;;;;;;5076558;28;20944;-67
2022/01/14 03:00:20;;;;;;;4.50;1.93;;;1.50;99.90;;;;;;5076747;28;20458;-68
2022/01/14 03:02:49;;;;;;;6.43;2.60;;;1.50;99.90;;;;;;5076872;28;20545;-67
2022/01/14 03:05:18;;;;;;;5.00;2.90;;;1.50;99.90;;;;;;5076802;28;20549;-67
2022/01/14 03:07:48;;;;;;;5.10;1.87;;;1.50;99.90;;;;;;5076827;28;20461;-67
2022/01/14 03:10:17;;;;;;;5.10;2.63;;;1.50;99.90;;;;;;5076789;28;20446;-68
2022/01/14 03:12:44;;;;;;;9.00;3.93;;;1.50;99.90;;;;;;5076860;28;20446;-68
2022/01/14 03:15:12;;;;;;;6.53;3.57;;;1.40;99.90;;;;;;5076348;28;20454;-67
2022/01/14 03:17:40;;;;;;;13.60;3.70;;;1.40;99.90;;;;;;5076805;28;20447;-68
2022/01/14 03:20:10;;;;;;;8.00;2.63;;;1.40;99.90;;;;;;5076953;28;20533;-67
2022/01/14 03:22:41;;;;;;;8.17;4.30;;;1.30;99.90;;;;;;5076729;28;20470;-67
2022/01/14 03:27:55;;;;;;;8.37;3.07;;;1.20;99.90;;;;;;5076399;28;20468;-68
2022/01/14 03:30:22;;;;;;;6.97;3.50;;;1.20;99.90;;;;;;5076479;28;20485;-68
2022/01/14 03:32:49;;;;;;;10.50;5.00;;;1.20;99.90;;;;;;5076189;28;20474;-67
2022/01/14 03:35:15;;;;;;;9.73;4.13;;;1.10;99.90;;;;;;5076397;28;20464;-67
2022/01/14 03:37:42;;;;;;;8.07;4.23;;;1.10;99.90;;;;;;5076304;28;20542;-68
2022/01/14 03:40:12;;;;;;;12.53;5.53;;;1.20;99.90;;;;;;5076418;28;20465;-67
2022/01/14 03:42:39;;;;;;;12.30;3.47;;;1.20;99.90;;;;;;5076450;28;20821;-68
2022/01/14 03:45:06;;;;;;;10.67;4.30;;;1.20;99.90;;;;;;5076468;28;20549;-68
2022/01/14 03:47:33;;;;;;;12.00;4.77;;;1.30;99.90;;;;;;5076599;28;20736;-67
2022/01/14 03:50:00;;;;;;;13.70;6.30;;;1.40;99.90;;;;;;5076185;28;20548;-67
2022/01/14 03:52:26;;;;;;;7.83;4.07;;;1.40;99.90;;;;;;5076138;28;20457;-68
2022/01/14 03:54:53;;;;;;;12.43;5.57;;;1.30;99.90;;;;;;5076147;28;20486;-67
2022/01/14 03:57:21;;;;;;;8.20;3.30;;;1.20;99.90;;;;;;5075971;28;20453;-67
2022/01/14 03:59:48;;;;;;;10.93;5.00;;;1.20;99.90;;;;;;5075515;28;20460;-68
2022/01/14 04:02:15;;;;;;;6.30;2.67;;;1.20;99.90;;;;;;5076227;28;20961;-68
2022/01/14 04:04:42;;;;;;;7.73;4.53;;;1.20;99.90;;;;;;5075823;28;20446;-68
2022/01/14 04:07:09;;;;;;;8.43;5.00;;;1.20;99.90;;;;;;5076095;28;20486;-67
2022/01/14 04:09:37;;;;;;;6.80;3.33;;;1.20;99.90;;;;;;5076227;28;20545;-67
2022/01/14 04:12:07;;;;;;;7.47;3.97;;;1.20;99.90;;;;;;5076760;28;20541;-69
2022/01/14 04:17:35;;;;;;;12.20;5.40;;;1.50;99.90;;;;;;5014633;28;20425;-69
2022/01/14 04:20:02;;;;;;;6.77;2.87;;;1.50;99.90;;;;;;5014692;28;20459;-69
2022/01/14 04:22:29;;;;;;;12.27;4.90;;;1.40;99.90;;;;;;5041187;28;20449;-68
2022/01/14 04:24:56;;;;;;;6.97;3.23;;;1.30;99.90;;;;;;5076094;28;20450;-67
2022/01/14 04:27:22;;;;;;;8.83;4.23;;;1.30;99.90;;;;;;5075644;28;20895;-67
2022/01/14 04:29:50;;;;;;;7.73;4.70;;;1.40;99.90;;;;;;5077181;28;20450;-67
2022/01/14 04:32:17;;;;;;;9.23;5.33;;;1.40;99.90;;;;;;5077835;28;20940;-68
2022/01/14 04:34:44;;;;;;;14.10;5.30;;;1.40;99.90;;;;;;5078544;28;20486;-68
2022/01/14 04:37:11;;;;;;;10.80;4.40;;;1.30;99.90;;;;;;5077397;28;20446;-68
2022/01/14 04:39:38;;;;;;;8.80;3.53;;;1.30;99.90;;;;;;5077198;28;20920;-67
2022/01/14 04:42:05;;;;;;;9.57;2.50;;;1.20;99.90;;;;;;5076931;28;20452;-69
2022/01/14 04:44:32;;;;;;;8.10;3.57;;;1.30;99.90;;;;;;5076313;28;20546;-69
2022/01/14 04:47:14;;;;;;;8.10;2.27;;;1.20;99.90;;;;;;5076839;28;20443;-67
2022/01/14 04:49:41;;;;;;;6.90;4.07;;;1.20;99.90;;;;;;5076450;28;20454;-67
2022/01/14 04:52:10;;;;;;;4.67;3.57;;;1.20;99.90;;;;;;5076047;28;20451;-68
2022/01/14 04:54:37;;;;;;;7.67;3.50;;;1.20;99.90;;;;;;5075378;28;20486;-68
2022/01/14 04:57:05;;;;;;;7.97;2.60;;;1.10;99.90;;;;;;5074628;28;20454;-68
2022/01/14 04:59:31;;;;;;;7.00;3.37;;;1.00;99.90;;;;;;5074401;28;20459;-68
2022/01/14 05:01:58;;;;;;;10.63;5.20;;;1.10;99.90;;;;;;5075233;28;20548;-68
2022/01/14 05:04:27;;;;;;;8.53;3.97;;;1.10;99.90;;;;;;5075386;28;20537;-69
2022/01/14 05:07:00;;;;;;;11.17;4.53;;;1.20;99.90;;;;;;5075581;28;20455;-68
2022/01/14 05:09:33;;;;;;;6.30;3.57;;;1.20;99.90;;;;;;5075369;28;20458;-69
2022/01/14 05:12:06;;;;;;;8.50;4.53;;;1.20;99.90;;;;;;5077827;28;20442;-68
2022/01/14 05:14:33;;;;;;;8.20;2.90;;;1.20;99.90;;;;;;5079507;28;20486;-68
2022/01/14 05:17:00;;;;;;;9.23;3.47;;;1.20;99.90;;;;;;5078950;28;20450;-69
2022/01/14 05:19:29;;;;;;;8.23;3.70;;;1.20;99.90;;;;;;5078712;28;20892;-68
2022/01/14 05:21:56;;;;;;;6.30;3.20;;;1.20;99.90;;;;;;5078397;28;20458;-69
2022/01/14 05:24:24;;;;;;;6.93;2.70;;;1.20;99.90;;;;;;5078063;28;20948;-70
2022/01/14 05:26:51;;;;;;;6.10;2.57;;;1.20;99.90;;;;;;5077769;28;20450;-68
2022/01/14 05:29:18;;;;;;;8.30;3.27;;;1.20;99.90;;;;;;5077731;28;20524;-68
2022/01/14 05:31:46;;;;;;;13.93;6.00;;;1.20;99.90;;;;;;5078614;28;20449;-69
2022/01/14 05:34:14;;;;;;;6.47;5.53;;;1.10;99.90;;;;;;5077283;28;21012;-67
2022/01/14 05:36:42;;;;;;;7.73;4.73;;;1.10;99.90;;;;;;5077078;28;20443;-68
2022/01/14 05:39:09;;;;;;;14.60;6.33;;;1.20;99.90;;;;;;5076502;28;20461;-68
2022/01/14 05:41:37;;;;;;;9.20;3.57;;;1.30;99.90;;;;;;5076965;28;20442;-69
2022/01/14 05:44:05;;;;;;;6.23;3.53;;;1.30;99.90;;;;;;5077058;28;20450;-69
2022/01/14 05:46:33;;;;;;;11.57;4.40;;;1.10;99.90;;;;;;5077312;28;20450;-69
2022/01/14 05:49:00;;;;;;;11.87;4.47;;;1.10;99.90;;;;;;5076784;28;20895;-69
2022/01/14 05:51:27;;;;;;;7.70;2.93;;;1.30;99.90;;;;;;5076910;28;20481;-68
2022/01/14 05:53:55;;;;;;;10.77;5.73;;;1.20;99.90;;;;;;5078370;28;20577;-69
2022/01/14 05:56:22;;;;;;;8.30;3.63;;;1.20;99.90;;;;;;5078428;28;20454;-70
2022/01/14 05:58:49;;;;;;;8.50;4.10;;;1.20;99.90;;;;;;5077723;28;20831;-68
2022/01/14 06:01:16;;;;;;;12.10;6.23;;;1.20;99.90;;;;;;5078362;28;20450;-68
2022/01/14 06:03:43;;;;;;;8.80;4.33;;;1.30;99.90;;;;;;5078018;28;20442;-68
2022/01/14 06:06:10;;;;;;;9.23;3.40;;;1.30;99.90;;;;;;5078281;28;20537;-69
2022/01/14 06:08:37;;;;;;;7.60;3.40;;;1.20;99.90;;;;;;5076716;28;20549;-68
2022/01/14 06:11:05;;;;;;;10.23;3.17;;;1.20;99.90;;;;;;5077210;28;20454;-68
2022/01/14 06:13:32;;;;;;;10.00;3.57;;;1.10;99.90;;;;;;5076737;28;20439;-69
2022/01/14 06:15:59;;;;;;;12.83;4.27;;;1.00;99.90;;;;;;5075796;28;20460;-68
2022/01/14 06:18:26;;;;;;;8.33;3.40;;;1.00;99.90;;;;;;5075464;28;20926;-68
2022/01/14 06:20:53;;;;;;;9.00;3.10;;;0.90;99.90;;;;;;5076621;28;20512;-68
2022/01/14 06:23:24;;;;;;;11.27;6.53;;;0.90;99.90;;;;;;5076062;28;20446;-69
2022/01/14 06:25:50;;;;;;;5.73;3.57;;;1.10;99.90;;;;;;5058537;28;20215;-68
2022/01/14 06:28:19;;;;;;;3.30;2.03;;;1.30;99.90;;;;;;5075393;28;20443;-69
2022/01/14 06:30:48;;;;;;;7.53;4.30;;;1.40;99.90;;;;;;5076515;28;20461;-69
2022/01/14 06:33:19;;;;;;;8.40;3.40;;;1.60;99.90;;;;;;5075755;28;20474;-69
2022/01/14 06:35:47;;;;;;;11.60;3.70;;;2.00;99.90;;;;;;5075707;28;20489;-68
2022/01/14 06:38:14;;;;;;;10.87;6.60;;;2.00;99.90;;;;;;5074476;28;20452;-68
2022/01/14 06:40:46;;;;;;;8.20;4.20;;;1.90;99.90;;;;;;5076441;28;20454;-68
2022/01/14 06:43:13;;;;;;;6.93;4.17;;;1.80;99.90;;;;;;5076703;28;20442;-69
2022/01/14 06:45:42;;;;;;;7.23;3.47;;;1.70;99.90;;;;;;5077065;28;20446;-68
2022/01/14 06:48:11;;;;;;;8.07;3.90;;;1.60;99.90;;;;;;5074979;28;20442;-68
2022/01/14 06:50:38;;;;;;;6.80;3.50;;;1.60;99.90;;;;;;5057891;28;20454;-68
2022/01/14 06:53:05;;;;;;;9.67;5.53;;;1.60;99.90;;;;;;5075517;28;20817;-68
2022/01/14 06:55:33;;;;;;;12.27;5.17;;;1.50;99.90;;;;;;5074992;28;20488;-68
2022/01/14 06:58:00;;;;;;;9.40;4.57;;;1.30;99.90;;;;;;5075757;28;20767;-68
2022/01/14 07:00:28;;;;;;;7.00;4.00;;;1.30;99.90;;;;;;5075139;28;20454;-68
2022/01/14 07:02:58;;;;;;;7.17;2.83;;;1.30;99.90;;;;;;5074884;28;20760;-68
2022/01/14 07:05:25;;;;;;;11.90;2.73;;;1.60;99.90;;;;;;5074460;28;20443;-68
2022/01/14 07:07:52;;;;;;;13.33;4.87;;;2.30;99.90;;;;;;5076795;28;20454;-69
2022/01/14 07:10:20;;;;;;;7.20;4.63;;;2.50;99.90;;;;;;5076191;28;20929;-68
2022/01/14 07:12:50;;;;;;;11.27;4.20;;;2.70;99.90;;;;;;5075883;28;20458;-68
2022/01/14 07:15:20;;;;;;;6.10;4.17;;;2.80;99.90;;;;;;5073210;28;20473;-69
2022/01/14 07:17:47;;;;;;;6.97;3.03;;;2.60;99.90;;;;;;5073966;28;20517;-68
2022/01/14 07:20:19;;;;;;;6.50;3.70;;;2.50;99.90;;;;;;5074836;28;20737;-69
2022/01/14 07:22:47;;;;;;;7.93;4.23;;;2.40;99.90;;;;;;5074038;28;20450;-69
2022/01/14 07:25:14;;;;;;;8.17;4.07;;;2.10;99.90;;;;;;5074430;28;20874;-69
2022/01/14 07:27:42;;;;;;;11.03;4.10;;;2.00;99.90;;;;;;5075067;28;20904;-68
2022/01/14 07:30:14;;;;;;;10.20;4.30;;;2.10;99.90;;;;;;5075513;28;20462;-68
2022/01/14 07:32:45;;;;;;;5.80;3.30;;;1.80;99.90;;;;;;5075512;28;20482;-70
2022/01/14 07:35:13;;;;;;;9.57;3.47;;;1.50;99.90;;;;;;5074423;28;20484;-69
2022/01/14 07:37:43;;;;;;;10.73;5.60;;;1.30;99.90;;;;;;5075071;28;20461;-68
2022/01/14 07:40:11;;;;;;;8.17;4.67;;;1.70;99.90;;;;;;5074940;28;20454;-69
2022/01/14 07:42:38;;;;;;;9.80;3.83;;;1.70;99.90;;;;;;5074858;28;20562;-69
2022/01/14 07:45:07;;;;;;;9.67;3.53;;;1.60;99.90;;;;;;5055645;28;20449;-68
2022/01/14 07:47:34;;;;;;;7.93;4.50;;;1.60;99.90;;;;;;5072195;28;20513;-70
2022/01/14 07:50:06;;;;;;;12.53;5.30;;;1.80;99.90;;;;;;5071464;28;20530;-68
2022/01/14 07:52:33;;;;;;;7.73;4.90;;;1.70;99.90;;;;;;5073321;28;20456;-68
2022/01/14 07:55:06;;;;;;;8.73;3.97;;;1.60;99.90;;;;;;5073333;28;20778;-69
2022/01/14 07:57:36;;;;;;;8.40;5.83;;;1.80;99.90;;;;;;5073392;28;20450;-68
2022/01/14 08:00:08;;;;;;;8.40;4.83;;;2.10;99.90;;;;;;5072988;28;20453;-68
2022/01/14 08:02:35;;;;;;;6.00;5.27;;;2.20;99.90;;;;;;5073630;28;20454;-68
2022/01/14 08:05:03;;;;;;;11.10;5.33;;;2.10;99.90;;;;;;5073530;28;21145;-68
2022/01/14 08:07:33;;;;;;;7.63;4.20;;;1.80;99.90;;;;;;5073941;28;20458;-67
2022/01/14 08:10:04;;;;;;;5.00;2.40;;;1.60;99.90;;;;;;5074816;28;20458;-69
2022/01/14 08:12:31;;;;;;;6.27;2.90;;;1.30;99.90;;;;;;5073970;28;20516;-67
2022/01/14 08:14:58;;;;;;;5.20;2.83;;;1.00;99.90;;;;;;5056043;28;20482;-67
2022/01/14 08:17:40;;;;;;;10.80;5.10;;;0.90;99.90;;;;;;5074422;28;20455;-69
2022/01/14 08:20:17;;;;;;;12.02;7.65;;;0.80;99.90;;;;;;5073961;28;20540;-71
2022/01/14 08:22:51;;;;;;;6.63;4.17;;;0.80;99.90;;;;;;5074171;28;20200;-70
2022/01/14 08:25:21;;;;;;;5.23;2.43;;;0.80;99.90;;;;;;5074406;28;20447;-70
2022/01/14 08:27:48;;;;;;;5.17;3.00;;;0.90;99.90;;;;;;5074030;28;20458;-70
2022/01/14 08:30:17;;;;;;;5.93;2.63;;;1.00;99.90;;;;;;5072460;28;20449;-71
2022/01/14 08:32:44;;;;;;;7.43;2.97;;;1.30;99.90;;;;;;5073555;28;21427;-71
2022/01/14 08:35:11;;;;;;;10.00;4.00;;;1.40;99.90;;;;;;5075671;28;20780;-70
2022/01/14 08:37:40;;;;;;;13.47;5.17;;;1.60;99.90;;;;;;5054724;28;20589;-70
2022/01/14 08:40:09;;;;;;;7.07;3.17;;;1.60;99.90;;;;;;5073458;28;20447;-70
2022/01/14 08:42:38;;;;;;;8.63;3.10;;;1.50;99.90;;;;;;5074482;28;20460;-69
2022/01/14 08:45:06;;;;;;;7.03;2.67;;;1.60;99.90;;;;;;5075081;28;20443;-70
2022/01/14 08:47:33;;;;;;;7.30;3.47;;;1.80;99.90;;;;;;5078133;28;20460;-69
2022/01/14 08:50:00;;;;;;;5.50;2.73;;;2.00;99.90;;;;;;5064252;28;20447;-68
2022/01/14 08:52:27;;;;;;;6.90;2.43;;;2.20;99.90;;;;;;5061920;28;20833;-68
2022/01/14 08:54:54;;;;;;;9.83;3.47;;;2.30;99.90;;;;;;5077416;28;20768;-68
2022/01/14 08:57:21;;;;;;;5.53;2.50;;;2.50;99.90;;;;;;5077339;28;20450;-70
2022/01/14 08:59:49;;;;;;;5.07;2.77;;;2.60;99.90;;;;;;5077390;28;20438;-69
2022/01/14 09:02:16;;;;;;;8.90;3.90;;;2.60;99.90;;;;;;5075284;28;20457;-69
2022/01/14 09:04:52;;;;;;;4.73;2.47;;;2.50;99.90;;;;;;5077680;28;20439;-68
2022/01/14 09:07:21;;;;;;;7.97;3.53;;;2.40;99.90;;;;;;5076715;28;20456;-70
2022/01/14 09:09:51;;;;;;;9.80;3.77;;;2.40;99.90;;;;;;5075076;28;20716;-69
2022/01/14 09:12:18;;;;;;;8.27;3.40;;;2.40;99.90;;;;;;5076743;28;20531;-70
2022/01/14 09:14:48;;;;;;;6.33;3.03;;;2.70;99.90;;;;;;5061917;28;20482;-69
2022/01/14 09:17:20;;;;;;;18.43;9.80;;;2.70;99.90;;;;;;5068110;28;20461;-69
2022/01/14 09:19:48;;;;;;;11.83;5.20;;;2.90;99.90;;;;;;5052558;28;20803;-69
2022/01/14 09:22:17;;;;;;;6.40;3.93;;;2.70;99.90;;;;;;5058617;28;20454;-69
2022/01/14 09:24:45;;;;;;;19.03;8.40;;;2.50;99.90;;;;;;5054736;28;20446;-69
2022/01/14 09:27:13;;;;;;;13.30;7.10;;;2.30;99.90;;;;;;5065588;28;20487;-69
2022/01/14 09:29:40;;;;;;;7.57;3.93;;;2.30;99.90;;;;;;5065924;28;20483;-70
2022/01/14 09:32:09;;;;;;;7.43;3.87;;;2.20;99.90;;;;;;5074102;28;20474;-69
2022/01/14 09:34:38;;;;;;;6.97;3.07;;;2.40;99.90;;;;;;5057920;28;20481;-70
2022/01/14 09:37:05;;;;;;;6.47;2.30;;;2.40;99.90;;;;;;5064424;28;20866;-70
2022/01/14 09:39:36;;;;;;;5.50;2.33;;;2.40;99.90;;;;;;5066514;28;20478;-70
2022/01/14 09:42:04;;;;;;;4.97;1.93;;;2.50;99.90;;;;;;5057830;28;20482;-70
2022/01/14 09:44:31;;;;;;;8.40;4.40;;;2.50;99.90;;;;;;5042617;28;20447;-70
2022/01/14 09:46:59;;;;;;;4.47;3.10;;;2.60;99.90;;;;;;5077794;28;20447;-70
2022/01/14 09:49:26;;;;;;;7.23;3.17;;;2.60;99.90;;;;;;5067676;28;20917;-69
2022/01/14 09:51:56;;;;;;;7.47;3.00;;;2.80;99.90;;;;;;5056051;28;20451;-70
2022/01/14 09:54:27;;;;;;;5.17;2.90;;;2.90;99.90;;;;;;5074767;28;20445;-71
2022/01/14 09:56:59;;;;;;;5.33;3.30;;;3.00;99.90;;;;;;5076469;28;20475;-70
2022/01/14 09:59:26;;;;;;;6.30;2.03;;;3.20;99.90;;;;;;5077054;28;20433;-71
2022/01/14 10:01:54;;;;;;;14.50;4.20;;;3.30;99.90;;;;;;5077421;28;20841;-69
2022/01/14 10:04:30;;;;;;;5.73;2.50;;;3.40;99.90;;;;;;5059785;28;20451;-69
2022/01/14 10:07:05;;;;;;;6.63;3.50;;;3.50;99.90;;;;;;5077503;28;20493;-69
2022/01/14 10:09:34;;;;;;;6.47;2.77;;;3.50;99.90;;;;;;5065303;28;20406;-69
2022/01/14 10:12:04;;;;;;;6.00;2.60;;;3.60;99.90;;;;;;5056288;28;20436;-70
2022/01/14 10:14:32;;;;;;;4.73;3.00;;;3.60;99.90;;;;;;5059207;28;20442;-69
2022/01/14 10:17:05;;;;;;;5.07;3.50;;;3.70;99.90;;;;;;5070463;28;20737;-69
2022/01/14 10:19:36;;;;;;;4.60;3.07;;;3.90;99.90;;;;;;5068008;28;20421;-68
2022/01/14 10:22:21;;;;;;;6.77;3.10;;;4.00;99.90;;;;;;5059572;28;20538;-68
2022/01/14 10:24:59;;;;;;;6.47;3.47;;;4.20;99.90;;;;;;5062619;28;20453;-68
2022/01/14 10:27:38;;;;;;;6.40;3.00;;;4.20;99.90;;;;;;5066579;28;20449;-69
2022/01/14 10:30:10;;;;;;;7.30;3.30;;;4.20;99.90;;;;;;5073271;28;20473;-68
2022/01/14 10:32:38;;;;;;;6.20;4.27;;;4.20;99.90;;;;;;5060048;28;20470;-67
2022/01/14 10:35:08;;;;;;;12.50;3.50;;;4.20;99.90;;;;;;5074986;28;20453;-68
2022/01/14 10:37:37;;;;;;;7.07;3.33;;;4.20;99.90;;;;;;5075354;28;20428;-68
2022/01/14 10:40:08;;;;;;;8.30;3.90;;;4.30;99.90;;;;;;5075620;28;20424;-69
2022/01/14 10:42:36;;;;;;;9.27;4.63;;;4.30;99.90;;;;;;5074899;28;20447;-68
2022/01/14 10:45:27;;;;;;;5.87;4.13;;;4.40;99.90;;;;;;5069129;28;20455;-68
2022/01/14 10:48:00;;;;;;;7.60;3.50;;;4.50;99.90;;;;;;5062941;28;20424;-68
2022/01/14 10:50:38;;;;;;;7.10;3.90;;;4.60;99.90;;;;;;5074164;28;20503;-68
2022/01/14 10:53:11;;;;;;;8.43;4.60;;;4.60;99.90;;;;;;5070151;28;20506;-68
2022/01/14 10:55:40;;;;;;;10.60;5.20;;;4.60;99.90;;;;;;5070673;28;20481;-67
2022/01/14 10:58:13;;;;;;;6.47;4.10;;;4.60;99.90;;;;;;5071933;28;20488;-68
2022/01/14 11:00:42;;;;;;;7.03;4.10;;;4.60;99.90;;;;;;5073678;28;20443;-67
2022/01/14 11:03:12;;;;;;;11.93;5.93;;;4.70;99.90;;;;;;5073063;28;20537;-68
2022/01/14 11:05:40;;;;;;;5.60;4.43;;;4.80;99.90;;;;;;5073082;28;20525;-69
2022/01/14 11:08:10;;;;;;;7.63;5.23;;;4.70;99.90;;;;;;5074190;28;20418;-68
2022/01/14 11:10:39;;;;;;;7.63;5.03;;;4.80;99.90;;;;;;5070794;28;20877;-69
2022/01/14 11:13:11;;;;;;;8.77;4.47;;;4.90;99.90;;;;;;5073471;28;20425;-69
2022/01/14 11:15:38;;;;;;;5.97;4.40;;;4.90;99.90;;;;;;5074170;28;20449;-69
2022/01/14 11:18:07;;;;;;;9.90;5.50;;;4.90;99.90;;;;;;5072898;28;20433;-68
2022/01/14 11:23:14;;;;;;;9.00;4.33;;;4.90;99.90;;;;;;5073257;28;20775;-69
2022/01/14 11:23:24;;;;;;;8.33;6.17;;;4.90;99.90;;;;;;5063971;28;20847;-68
2022/01/14 11:25:58;;;;;;;7.53;4.43;;;5.00;99.90;;;;;;5070789;28;20443;-68
2022/01/14 11:28:30;;;;;;;13.83;9.20;;;5.10;99.90;;;;;;5071606;28;20951;-69
2022/01/14 11:30:58;;;;;;;9.70;6.40;;;5.10;99.90;;;;;;5067795;28;20845;-69
2022/01/14 11:33:43;;;;;;;11.93;5.40;;;5.20;99.90;;;;;;5064124;28;20453;-69
2022/01/14 11:36:12;;;;;;;13.27;6.40;;;5.20;99.90;;;;;;5074315;28;20488;-69
2022/01/14 11:38:44;;;;;;;7.73;4.30;;;5.10;99.90;;;;;;5065781;28;20447;-69
2022/01/14 11:41:22;;;;;;;10.43;6.10;;;5.20;99.90;;;;;;5073148;28;20456;-71
2022/01/14 11:43:52;;;;;;;12.93;5.47;;;5.30;99.90;;;;;;5058595;28;20455;-69
2022/01/14 11:46:43;;;;;;;8.00;4.60;;;5.30;99.90;;;;;;5059341;28;20757;-69
2022/01/14 11:49:34;;;;;;;7.60;5.63;;;5.30;99.90;;;;;;5069043;28;20462;-69
2022/01/14 11:52:03;;;;;;;6.57;5.90;;;5.40;99.90;;;;;;5073528;28;20508;-68
2022/01/14 11:54:46;;;;;;;6.83;4.40;;;5.40;99.90;;;;;;5073859;28;20520;-68
2022/01/14 11:57:44;;;;;;;13.67;7.10;;;5.50;99.90;;;;;;5073220;28;20464;-69
2022/01/14 12:00:37;;;;;;;9.50;5.37;;;5.60;99.90;;;;;;5075177;28;20451;-68
2022/01/14 12:03:29;;;;;;;7.73;4.70;;;5.70;99.90;;;;;;5074739;28;20454;-68
2022/01/14 12:05:58;;;;;;;7.73;5.40;;;5.70;99.90;;;;;;5063067;28;20422;-69
2022/01/14 12:08:27;;;;;;;10.60;4.70;;;5.80;99.90;;;;;;5073171;28;20440;-69
2022/01/14 12:10:59;;;;;;;8.20;4.13;;;6.00;99.90;;;;;;5074320;28;20447;-69
2022/01/14 12:13:38;;;;;;;4.90;3.20;;;6.00;99.90;;;;;;5075153;28;20529;-70
2022/01/14 12:16:07;;;;;;;6.90;3.80;;;6.30;99.90;;;;;;5074243;28;20485;-71
2022/01/14 12:19:23;;;;;;;5.47;2.80;;;6.50;99.90;;;;;;5074536;28;20453;-71
2022/01/14 12:22:11;;;;;;;10.27;4.77;;;6.80;99.90;;;;;;5078897;28;20770;-71
2022/01/14 12:24:58;;;;;;;12.80;6.10;;;7.10;99.90;;;;;;5076715;28;21063;-71
2022/01/14 12:27:46;;;;;;;8.83;5.57;;;7.30;99.90;;;;;;5078265;28;20458;-69
2022/01/14 12:30:25;;;;;;;8.60;5.20;;;7.50;99.90;;;;;;5074304;28;20462;-70
2022/01/14 12:32:56;;;;;;;7.20;4.23;;;7.70;99.90;;;;;;5076716;28;20450;-70
2022/01/14 12:35:35;;;;;;;6.63;3.70;;;7.80;99.90;;;;;;5077481;28;20537;-70
2022/01/14 12:38:03;;;;;;;10.93;7.67;;;8.00;99.90;;;;;;5071151;28;20456;-70
2022/01/14 12:40:37;;;;;;;13.57;8.03;;;7.80;99.90;;;;;;5077803;28;20439;-70
2022/01/14 12:43:08;;;;;;;12.93;7.43;;;7.60;99.90;;;;;;5078591;28;20457;-69
2022/01/14 12:45:41;;;;;;;12.30;7.00;;;7.40;99.90;;;;;;5075825;28;20508;-69
2022/01/14 12:48:28;;;;;;;14.07;7.83;;;7.10;99.90;;;;;;5071674;28;20497;-70
2022/01/14 12:51:13;;;;;;;13.13;7.53;;;6.90;99.90;;;;;;5075236;28;20449;-70
2022/01/14 12:53:52;;;;;;;8.80;6.43;;;6.90;99.90;;;;;;5077556;28;20457;-69
2022/01/14 12:56:22;;;;;;;7.03;6.17;;;6.80;99.90;;;;;;5076508;28;20778;-70
2022/01/14 12:59:01;;;;;;;10.37;5.90;;;6.80;99.90;;;;;;5075519;28;20438;-70
2022/01/14 13:01:31;;;;;;;10.30;5.50;;;6.80;99.90;;;;;;5071559;28;21075;-72
2022/01/14 13:04:00;;;;;;;10.47;5.47;;;6.80;99.90;;;;;;5075970;28;20900;-71
2022/01/14 13:06:28;;;;;;;9.03;5.40;;;6.70;99.90;;;;;;5076273;28;20622;-72
2022/01/14 13:08:57;;;;;;;9.70;6.20;;;6.60;99.90;;;;;;5076734;28;20446;-72
2022/01/14 13:11:24;;;;;;;10.40;6.50;;;6.60;99.90;;;;;;5061021;28;20726;-72
2022/01/14 13:14:05;;;;;;;11.88;7.43;;;6.60;99.90;;;;;;5074759;28;20507;-70
2022/01/14 13:16:46;;;;;;;10.30;5.90;;;6.70;99.90;;;;;;5067402;28;20223;-70
2022/01/14 13:19:28;;;;;;;6.77;5.23;;;6.70;99.90;;;;;;5055456;28;20453;-70
2022/01/14 13:21:56;;;;;;;7.70;5.17;;;6.70;99.90;;;;;;5076472;28;20458;-71
2022/01/14 13:24:26;;;;;;;11.43;5.67;;;6.70;99.90;;;;;;5067589;28;20456;-70
2022/01/14 13:27:05;;;;;;;9.20;6.40;;;6.70;99.90;;;;;;5068070;28;20449;-71